Connexion S'enregistrer

Connexion à votre compte

Identifiant
Mot de passe
Maintenir la connexion active sur ce site

Créer un compte

Pour valider ce formulaire, vous devez remplir tous les champs.
Nom
Identifiant
Mot de passe
Répétez le mot de passe
Adresse e-mail
Répétez l'adresse e-mail

Nous contacter

 Téléphone : +33 (0)4 79 54 41 81

Coordonnées détaillées et accès : cliquez ici

 
LFLB °C
    Ferienhaus Ostsee
[source: ADDS]
METAR
LFLB 160000Z AUTO VRB04KT CAVOK 15/13 Q1016 NOSIG =
TAF LFLB 152300Z 1600/1624 36005KT CAVOK
TAF
TAF LFLB 152300Z 1600/1624 36005KT CAVOK =
SR / SS: 04:02 / 19:22 UTC (Lever/Coucher du soleil le 2019-07-16)
JSN Boot template designed by JoomlaShine.com